createdAt,value
2022-08-08T00:00:52.669Z,24.90
2022-08-08T00:03:37.933Z,24.70
2022-08-08T00:06:33.988Z,24.80
2022-08-08T00:09:12.058Z,24.80
2022-08-08T00:12:02.900Z,24.80
2022-08-08T00:14:54.736Z,24.90
2022-08-08T00:18:02.163Z,24.90
2022-08-08T00:20:54.642Z,25.00
2022-08-08T00:23:51.134Z,25.00
2022-08-08T00:26:30.377Z,25.00
2022-08-08T00:29:17.514Z,25.00
2022-08-08T00:32:34.480Z,24.90
2022-08-08T00:35:27.273Z,24.80
2022-08-08T00:38:31.095Z,24.80
2022-08-08T00:41:54.482Z,24.80
2022-08-08T00:44:44.955Z,24.70
2022-08-08T00:48:05.070Z,24.70
2022-08-08T00:50:58.694Z,24.70
2022-08-08T00:54:13.580Z,24.70
2022-08-08T00:57:23.629Z,24.70
2022-08-08T01:00:12.041Z,24.60
2022-08-08T01:04:02.188Z,24.50
2022-08-08T01:06:32.926Z,24.50
2022-08-08T01:09:35.693Z,24.50
2022-08-08T01:12:30.494Z,24.50
2022-08-08T01:15:43.785Z,24.50
2022-08-08T01:18:53.543Z,24.50
2022-08-08T01:22:12.284Z,24.40
2022-08-08T01:25:16.860Z,24.50
2022-08-08T01:28:03.709Z,24.50
2022-08-08T01:32:06.814Z,24.50
2022-08-08T01:34:36.459Z,24.40
2022-08-08T01:37:58.035Z,24.40
2022-08-08T01:41:15.832Z,24.30
2022-08-08T01:44:11.066Z,24.30
2022-08-08T01:46:52.464Z,24.30
2022-08-08T01:49:53.414Z,24.20
2022-08-08T01:55:14.791Z,24.20
2022-08-08T01:56:29.613Z,24.20
2022-08-08T01:59:17.163Z,24.20
2022-08-08T02:02:34.184Z,24.10
2022-08-08T02:05:55.696Z,24.10
2022-08-08T02:08:33.996Z,24.00
2022-08-08T02:11:52.986Z,23.90
2022-08-08T02:14:55.345Z,23.90
2022-08-08T02:17:42.718Z,23.90
2022-08-08T02:21:02.841Z,23.80
2022-08-08T02:23:35.396Z,23.80
2022-08-08T02:26:32.123Z,23.50
2022-08-08T02:29:51.628Z,23.60
2022-08-08T02:32:43.084Z,23.60
2022-08-08T02:36:03.755Z,23.70
2022-08-08T02:39:41.963Z,23.70
2022-08-08T02:42:38.163Z,23.70
2022-08-08T02:45:28.636Z,23.80
2022-08-08T02:48:27.243Z,23.80
2022-08-08T02:55:02.272Z,23.60
2022-08-08T02:58:09.566Z,23.50
2022-08-08T03:01:32.689Z,23.50
2022-08-08T03:05:05.091Z,23.50
2022-08-08T03:08:11.201Z,23.50
2022-08-08T03:10:53.434Z,23.40
2022-08-08T03:15:56.416Z,23.40
2022-08-08T03:16:54.171Z,23.40
2022-08-08T03:19:38.853Z,23.30
2022-08-08T03:22:48.326Z,23.30
2022-08-08T03:25:18.849Z,23.40
2022-08-08T03:28:02.667Z,23.40
2022-08-08T03:30:34.720Z,23.40
2022-08-08T03:34:00.238Z,23.40
2022-08-08T03:36:19.501Z,23.40
2022-08-08T03:38:56.481Z,23.40
2022-08-08T03:42:27.599Z,23.40
2022-08-08T03:44:25.512Z,23.40
2022-08-08T03:46:56.248Z,23.40
2022-08-08T03:50:00.105Z,23.40
2022-08-08T03:52:17.084Z,23.40
2022-08-08T03:55:02.427Z,23.40
2022-08-08T03:58:29.955Z,23.50
2022-08-08T04:00:27.649Z,23.50
2022-08-08T04:03:11.471Z,23.60
2022-08-08T04:05:50.195Z,23.60
2022-08-08T04:08:33.384Z,23.70
2022-08-08T04:11:11.043Z,23.70
2022-08-08T04:14:33.036Z,23.70
2022-08-08T04:16:40.649Z,23.70
2022-08-08T04:19:24.956Z,23.80
2022-08-08T04:21:58.458Z,23.80
2022-08-08T04:24:31.891Z,23.80
2022-08-08T04:27:03.221Z,23.90
2022-08-08T04:29:38.324Z,23.90
2022-08-08T04:32:30.922Z,23.90
2022-08-08T04:35:04.231Z,23.90
2022-08-08T04:37:36.095Z,23.90
2022-08-08T04:40:14.485Z,24.00
2022-08-08T04:42:57.203Z,24.00
2022-08-08T04:45:35.841Z,24.10
2022-08-08T04:48:05.461Z,24.10
2022-08-08T04:50:40.258Z,24.10
2022-08-08T04:54:27.391Z,24.20
2022-08-08T04:56:02.020Z,24.20
2022-08-08T04:58:33.553Z,24.20
2022-08-08T05:01:09.121Z,24.20
2022-08-08T05:04:11.240Z,24.20
2022-08-08T05:06:31.277Z,24.20
2022-08-08T05:09:02.941Z,24.20
2022-08-08T05:11:38.884Z,24.20
2022-08-08T05:14:12.333Z,24.20
2022-08-08T05:16:52.551Z,24.20
2022-08-08T05:20:10.474Z,24.20
2022-08-08T05:22:18.058Z,24.10
2022-08-08T05:24:49.383Z,24.10
2022-08-08T05:27:20.675Z,24.10
2022-08-08T05:29:51.782Z,24.20
2022-08-08T05:32:24.754Z,24.30
2022-08-08T05:35:04.811Z,24.30
2022-08-08T05:40:45.555Z,24.50
2022-08-08T05:43:39.340Z,24.60
2022-08-08T05:46:16.966Z,24.80
2022-08-08T05:48:50.062Z,25.00
2022-08-08T05:51:28.160Z,25.00
2022-08-08T05:54:28.590Z,25.10
2022-08-08T05:57:57.760Z,25.30
2022-08-08T06:00:22.846Z,25.30
2022-08-08T06:03:17.503Z,25.30
2022-08-08T06:06:01.208Z,25.40
2022-08-08T06:08:36.292Z,25.50
2022-08-08T06:11:10.447Z,25.60
2022-08-08T06:13:47.087Z,25.60
2022-08-08T06:16:19.085Z,25.70
2022-08-08T06:19:02.001Z,25.70
2022-08-08T06:21:48.750Z,25.80
2022-08-08T06:24:26.960Z,25.90
2022-08-08T06:27:12.973Z,26.00
2022-08-08T06:30:07.270Z,26.10
2022-08-08T06:33:00.913Z,26.20
2022-08-08T06:36:10.170Z,26.40
2022-08-08T06:43:05.694Z,26.60
2022-08-08T06:45:41.287Z,26.60
2022-08-08T06:48:10.128Z,26.70
2022-08-08T06:50:41.594Z,26.80
2022-08-08T06:53:20.322Z,26.90
2022-08-08T06:56:03.306Z,26.80
2022-08-08T06:58:37.045Z,26.90
2022-08-08T07:02:17.565Z,27.00
2022-08-08T07:04:49.652Z,27.20
2022-08-08T07:07:37.145Z,27.40
2022-08-08T07:11:02.433Z,27.50
2022-08-08T07:17:14.610Z,27.90
2022-08-08T07:20:12.722Z,28.20
2022-08-08T07:22:57.093Z,28.30
2022-08-08T07:25:54.574Z,28.40
2022-08-08T07:28:49.010Z,28.60
2022-08-08T07:31:42.933Z,28.80
2022-08-08T07:34:20.236Z,28.90
2022-08-08T07:37:12.156Z,28.90
2022-08-08T07:39:57.679Z,29.10
2022-08-08T07:42:34.469Z,29.10
2022-08-08T07:45:05.959Z,29.20
2022-08-08T07:47:48.869Z,29.10
2022-08-08T07:50:56.381Z,29.00
2022-08-08T07:54:01.618Z,28.70
2022-08-08T07:56:36.185Z,28.60
2022-08-08T07:59:20.017Z,28.50
2022-08-08T08:02:35.103Z,28.60
2022-08-08T08:04:52.916Z,28.60
2022-08-08T08:10:35.498Z,28.70
2022-08-08T08:13:42.761Z,28.80
2022-08-08T08:16:35.280Z,28.80
2022-08-08T08:19:16.094Z,29.10
2022-08-08T08:21:58.422Z,29.30
2022-08-08T08:24:50.296Z,29.50
2022-08-08T08:27:21.886Z,29.60
2022-08-08T08:29:53.961Z,29.70
2022-08-08T08:32:31.633Z,29.70
2022-08-08T08:35:06.668Z,29.70
2022-08-08T08:37:59.306Z,29.70
2022-08-08T08:40:36.503Z,29.70
2022-08-08T08:43:15.218Z,29.70
2022-08-08T08:45:45.833Z,29.90
2022-08-08T08:48:19.256Z,30.00
2022-08-08T08:50:52.413Z,29.90
2022-08-08T08:53:55.509Z,30.00
2022-08-08T08:56:15.175Z,30.20
2022-08-08T08:58:52.909Z,30.40
2022-08-08T09:01:28.332Z,30.40
2022-08-08T09:04:05.813Z,30.50
2022-08-08T09:06:50.441Z,30.70
2022-08-08T09:09:39.674Z,30.70
2022-08-08T09:12:23.141Z,30.70
2022-08-08T09:14:55.617Z,30.80
2022-08-08T09:17:41.025Z,30.70
2022-08-08T09:21:57.969Z,30.70
2022-08-08T09:23:11.387Z,30.80
2022-08-08T09:25:58.385Z,30.90
2022-08-08T09:28:38.559Z,31.00
2022-08-08T09:31:25.634Z,31.30
2022-08-08T09:34:31.074Z,31.40
2022-08-08T09:37:57.584Z,31.30
2022-08-08T09:40:11.199Z,31.40
2022-08-08T09:42:51.697Z,31.40
2022-08-08T09:46:02.666Z,31.70
2022-08-08T09:48:57.777Z,32.30
2022-08-08T09:52:55.413Z,32.70
2022-08-08T09:55:05.625Z,33.40
2022-08-08T09:57:46.074Z,33.80
2022-08-08T10:00:48.633Z,32.70
2022-08-08T10:03:22.428Z,32.70
2022-08-08T10:05:50.028Z,32.80
2022-08-08T10:08:17.554Z,32.30
2022-08-08T10:10:51.016Z,32.00
2022-08-08T10:13:22.800Z,31.60
2022-08-08T10:16:02.019Z,31.40
2022-08-08T10:18:43.423Z,31.40
2022-08-08T10:21:26.093Z,31.40
2022-08-08T10:24:06.072Z,31.30
2022-08-08T10:27:06.875Z,31.30
2022-08-08T10:30:16.278Z,31.30
2022-08-08T10:33:08.468Z,31.30
2022-08-08T10:36:22.473Z,31.20
2022-08-08T10:38:59.769Z,31.30
2022-08-08T10:41:35.379Z,31.40
2022-08-08T10:44:40.261Z,31.60
2022-08-08T10:47:55.677Z,31.70
2022-08-08T10:50:53.666Z,32.00
2022-08-08T10:53:56.619Z,32.30
2022-08-08T10:56:53.832Z,32.00
2022-08-08T10:59:21.538Z,32.10
2022-08-08T11:01:54.973Z,32.00
2022-08-08T11:04:38.569Z,32.00
2022-08-08T11:07:07.545Z,32.10
2022-08-08T11:09:55.342Z,32.40
2022-08-08T11:12:22.989Z,32.80
2022-08-08T11:14:57.187Z,32.90
2022-08-08T11:18:00.718Z,32.90
2022-08-08T11:20:27.493Z,32.90
2022-08-08T11:23:05.752Z,32.90
2022-08-08T11:25:52.663Z,33.00
2022-08-08T11:31:21.120Z,32.60
2022-08-08T11:34:03.217Z,32.30
2022-08-08T11:36:37.023Z,32.20
2022-08-08T11:39:12.852Z,32.10
2022-08-08T11:41:48.377Z,31.90
2022-08-08T11:45:08.841Z,31.70
2022-08-08T11:47:39.521Z,31.60
2022-08-08T11:50:13.035Z,31.50
2022-08-08T11:52:47.160Z,31.50
2022-08-08T11:55:29.008Z,31.60
2022-08-08T11:58:14.384Z,31.60
2022-08-08T12:00:51.135Z,31.70
2022-08-08T12:03:24.765Z,31.70
2022-08-08T12:05:58.489Z,31.90
2022-08-08T12:08:35.352Z,31.90
2022-08-08T12:11:05.142Z,31.80
2022-08-08T12:14:03.672Z,31.90
2022-08-08T12:16:39.588Z,31.90
2022-08-08T12:19:21.974Z,31.80
2022-08-08T12:22:09.389Z,31.80
2022-08-08T12:24:53.981Z,31.90
2022-08-08T12:27:26.531Z,31.60
2022-08-08T12:29:56.584Z,31.70
2022-08-08T12:32:23.965Z,31.60
2022-08-08T12:35:18.022Z,31.50
2022-08-08T12:38:16.578Z,31.50
2022-08-08T12:41:16.517Z,31.50
2022-08-08T12:44:32.776Z,31.40
2022-08-08T12:49:29.557Z,31.10
2022-08-08T12:52:28.709Z,31.10
2022-08-08T13:00:05.011Z,30.80
2022-08-08T13:03:02.228Z,30.80
2022-08-08T13:06:14.376Z,31.00
2022-08-08T13:08:53.235Z,31.20
2022-08-08T13:12:26.868Z,31.20
2022-08-08T13:14:53.709Z,31.30
2022-08-08T13:18:11.859Z,31.30
2022-08-08T13:20:48.204Z,31.20
2022-08-08T13:23:36.701Z,31.10
2022-08-08T13:26:54.979Z,31.20
2022-08-08T13:29:24.908Z,31.40
2022-08-08T13:36:26.050Z,31.50
2022-08-08T13:39:00.189Z,31.50
2022-08-08T13:41:37.852Z,31.30
2022-08-08T13:44:10.777Z,31.30
2022-08-08T13:47:07.090Z,31.30
2022-08-08T13:53:59.803Z,31.30
2022-08-08T14:00:21.632Z,31.40
2022-08-08T14:03:00.987Z,31.30
2022-08-08T14:06:01.278Z,31.30
2022-08-08T14:16:50.691Z,31.50
2022-08-08T14:19:57.577Z,31.60
2022-08-08T14:23:21.060Z,31.70
2022-08-08T14:26:28.306Z,31.70
2022-08-08T14:29:06.039Z,31.70
2022-08-08T14:32:10.762Z,31.80
2022-08-08T14:34:37.118Z,31.70
2022-08-08T14:37:08.129Z,31.70
2022-08-08T14:40:05.980Z,31.50
2022-08-08T14:42:54.415Z,31.50
2022-08-08T14:45:33.389Z,31.70
2022-08-08T14:48:27.628Z,31.70
2022-08-08T14:51:08.591Z,31.80
2022-08-08T14:54:11.538Z,31.80
2022-08-08T14:56:44.835Z,31.60
2022-08-08T14:59:31.749Z,31.60
2022-08-08T15:02:31.117Z,31.60
2022-08-08T15:09:07.331Z,31.80
2022-08-08T15:11:52.807Z,31.90
2022-08-08T15:15:18.773Z,31.90
2022-08-08T15:25:28.898Z,31.80
2022-08-08T15:28:32.787Z,31.80
2022-08-08T15:34:31.811Z,31.80
2022-08-08T15:41:47.527Z,31.80
2022-08-08T15:51:49.868Z,31.90
2022-08-08T15:54:38.694Z,31.70
2022-08-08T15:57:42.621Z,31.70
2022-08-08T16:00:26.746Z,31.80
2022-08-08T16:07:39.580Z,31.80
2022-08-08T16:13:20.430Z,31.70
2022-08-08T16:13:53.297Z,31.80
2022-08-08T16:21:26.260Z,31.60
2022-08-08T16:23:55.850Z,31.50
2022-08-08T16:27:26.923Z,31.50
2022-08-08T16:30:08.826Z,31.50
2022-08-08T16:32:42.855Z,31.60
2022-08-08T16:35:31.246Z,31.60
2022-08-08T16:37:59.399Z,31.60
2022-08-08T16:40:29.264Z,31.60
2022-08-08T16:42:56.722Z,31.60
2022-08-08T16:46:37.543Z,31.60
2022-08-08T16:48:13.331Z,31.50
2022-08-08T16:50:55.906Z,31.50
2022-08-08T16:55:04.692Z,31.40
2022-08-08T16:56:14.410Z,31.40
2022-08-08T16:58:43.003Z,31.40
2022-08-08T17:01:15.410Z,31.40
2022-08-08T17:03:59.382Z,31.40
2022-08-08T17:06:56.539Z,31.40
2022-08-08T17:09:24.167Z,31.40
2022-08-08T17:12:02.892Z,31.40
2022-08-08T17:14:34.125Z,31.40
2022-08-08T17:17:06.474Z,31.30
2022-08-08T17:19:56.930Z,31.30
2022-08-08T17:22:33.177Z,31.30
2022-08-08T17:25:11.835Z,31.20
2022-08-08T17:27:46.337Z,31.20
2022-08-08T17:30:23.646Z,31.20
2022-08-08T17:34:52.980Z,31.20
2022-08-08T17:35:54.579Z,31.20
2022-08-08T17:38:28.661Z,31.20
2022-08-08T17:41:07.832Z,31.10
2022-08-08T17:44:01.222Z,31.10
2022-08-08T17:50:39.132Z,31.10
2022-08-08T17:53:06.842Z,31.00
2022-08-08T17:56:03.475Z,30.90
2022-08-08T17:58:50.336Z,30.80
2022-08-08T18:01:29.878Z,30.80
2022-08-08T18:04:15.539Z,30.70
2022-08-08T18:08:02.941Z,30.60
2022-08-08T18:12:46.182Z,30.60
2022-08-08T18:15:39.406Z,30.60
2022-08-08T18:18:28.291Z,30.60
2022-08-08T18:20:54.985Z,30.60
2022-08-08T18:23:27.073Z,30.50
2022-08-08T18:25:56.391Z,30.40
2022-08-08T18:28:29.385Z,30.40
2022-08-08T18:34:11.845Z,30.20
2022-08-08T18:36:54.918Z,30.10
2022-08-08T18:39:28.270Z,30.00
2022-08-08T18:42:03.634Z,29.90
2022-08-08T18:44:35.962Z,29.80
2022-08-08T18:47:07.278Z,29.70
2022-08-08T18:49:58.051Z,29.70
2022-08-08T18:52:51.824Z,29.70
2022-08-08T18:55:27.969Z,29.70
2022-08-08T18:58:04.692Z,29.70
2022-08-08T19:00:55.267Z,29.60
2022-08-08T19:06:57.144Z,29.70
2022-08-08T19:09:48.324Z,29.40
2022-08-08T19:12:26.404Z,29.20
2022-08-08T19:14:59.819Z,29.10
2022-08-08T19:18:32.431Z,28.80
2022-08-08T19:21:30.943Z,28.80
2022-08-08T19:24:05.756Z,28.80
2022-08-08T19:27:57.047Z,28.80
2022-08-08T19:30:39.261Z,28.90
2022-08-08T19:33:19.213Z,28.80
2022-08-08T19:36:08.693Z,28.70
2022-08-08T19:38:39.601Z,28.70
2022-08-08T19:41:09.806Z,28.70
2022-08-08T19:44:02.539Z,28.60
2022-08-08T19:46:33.703Z,28.50
2022-08-08T19:49:03.179Z,28.40
2022-08-08T19:51:34.063Z,28.40
2022-08-08T19:54:27.494Z,28.30
2022-08-08T19:56:54.738Z,28.20
2022-08-08T19:59:22.617Z,28.20
2022-08-08T20:02:03.540Z,28.20
2022-08-08T20:04:33.081Z,28.20
2022-08-08T20:08:30.025Z,28.20
2022-08-08T20:10:14.969Z,28.20
2022-08-08T20:13:14.844Z,28.20
2022-08-08T20:16:00.897Z,28.20
2022-08-08T20:18:37.175Z,28.20
2022-08-08T20:21:24.917Z,28.20
2022-08-08T20:24:18.517Z,28.10
2022-08-08T20:26:49.444Z,28.10
2022-08-08T20:29:18.162Z,28.10
2022-08-08T20:31:47.058Z,28.10
2022-08-08T20:35:04.356Z,28.10
2022-08-08T20:37:46.775Z,28.10
2022-08-08T20:40:33.750Z,28.10
2022-08-08T20:43:43.602Z,28.10
2022-08-08T20:46:20.339Z,28.10
2022-08-08T20:48:51.405Z,28.00
2022-08-08T20:51:20.807Z,28.00
2022-08-08T20:54:00.994Z,28.00
2022-08-08T20:56:35.824Z,28.00
2022-08-08T20:59:08.670Z,28.00
2022-08-08T21:01:44.320Z,27.90
2022-08-08T21:04:27.350Z,27.90
2022-08-08T21:06:56.182Z,27.80
2022-08-08T21:09:31.466Z,27.80
2022-08-08T21:12:03.206Z,27.80
2022-08-08T21:14:34.665Z,27.80
2022-08-08T21:17:06.796Z,27.80
2022-08-08T21:19:45.352Z,27.80
2022-08-08T21:22:22.453Z,27.90
2022-08-08T21:25:02.305Z,28.00
2022-08-08T21:28:05.263Z,28.00
2022-08-08T21:30:21.903Z,28.10
2022-08-08T21:32:51.615Z,28.20
2022-08-08T21:38:58.482Z,28.10
2022-08-08T21:41:38.619Z,28.20
2022-08-08T21:44:17.338Z,28.20
2022-08-08T21:50:29.060Z,28.20
2022-08-08T21:54:33.841Z,28.20
2022-08-08T21:56:19.878Z,28.20
2022-08-08T21:59:15.371Z,28.20
2022-08-08T22:01:52.028Z,28.20
2022-08-08T22:04:24.607Z,28.20
2022-08-08T22:06:57.931Z,28.20
2022-08-08T22:09:37.438Z,28.20
2022-08-08T22:12:18.665Z,28.20
2022-08-08T22:14:49.907Z,28.10
2022-08-08T22:17:31.347Z,28.20
2022-08-08T22:20:23.817Z,28.10
2022-08-08T22:22:58.454Z,28.20
2022-08-08T22:29:04.279Z,28.10
2022-08-08T22:32:21.422Z,28.00
2022-08-08T22:36:04.956Z,28.00
2022-08-08T22:42:34.487Z,27.90
2022-08-08T22:45:12.412Z,27.80
2022-08-08T22:47:47.190Z,27.80
2022-08-08T22:50:47.971Z,27.70
2022-08-08T22:54:31.341Z,27.70
2022-08-08T22:56:51.497Z,27.70
2022-08-08T22:59:48.614Z,27.70
2022-08-08T23:03:11.271Z,27.60
2022-08-08T23:05:49.964Z,27.60
2022-08-08T23:08:18.095Z,27.50
2022-08-08T23:10:53.049Z,27.50
2022-08-08T23:13:42.201Z,27.40
2022-08-08T23:16:40.948Z,27.40
2022-08-08T23:19:33.294Z,27.30
2022-08-08T23:22:06.587Z,27.30
2022-08-08T23:25:02.131Z,27.30
2022-08-08T23:27:39.235Z,27.30
2022-08-08T23:30:35.609Z,27.30
2022-08-08T23:34:16.725Z,27.30
2022-08-08T23:37:24.478Z,27.30
2022-08-08T23:49:03.214Z,27.30
2022-08-08T23:51:12.835Z,27.20
2022-08-08T23:54:05.382Z,27.20
2022-08-08T23:57:15.240Z,27.20
